Time;durP1;ratioP1;P1;durP2;ratioP2;P2;SDS_P1;SDS_P2;PMS_P1;PMS_P2;Temp;Humidity;BMP_temperature;BMP_pressure;BME280_temperature;BME280_humidity;BME280_pressure;Samples;Min_cycle;Max_cycle;Signal;HPM_P1;HPM_P2
2023/09/23 00:00:12;;;;;;;5.07;2.50;;;;;;;11.69;100.00;100735.16;6093929;19;20035;-78
2023/09/23 00:02:25;;;;;;;6.22;3.22;;;;;;;11.69;100.00;100732.53;6091348;19;20656;-78
2023/09/23 00:04:42;;;;;;;9.57;3.40;;;;;;;11.71;100.00;100724.53;6062536;19;20007;-79
2023/09/23 00:06:50;;;;;;;7.20;3.40;;;;;;;11.77;100.00;100719.84;6055405;19;20018;-77
2023/09/23 00:09:10;;;;;;;7.40;3.55;;;;;;;11.77;100.00;100725.09;6069225;19;20011;-75
2023/09/23 00:11:15;;;;;;;9.95;4.40;;;;;;;11.85;100.00;100724.75;6094338;19;20007;-74
2023/09/23 00:13:21;;;;;;;11.23;5.68;;;;;;;11.80;100.00;100722.31;6095982;19;20187;-74
2023/09/23 00:15:26;;;;;;;12.20;6.45;;;;;;;11.76;100.00;100720.75;6094745;19;20040;-74
2023/09/23 00:17:32;;;;;;;11.75;6.15;;;;;;;11.72;100.00;100731.53;6094717;19;20014;-74
2023/09/23 00:19:40;;;;;;;15.38;6.85;;;;;;;11.64;100.00;100732.72;6095459;19;20092;-73
2023/09/23 00:21:45;;;;;;;13.70;6.90;;;;;;;11.60;100.00;100728.50;6095524;19;20018;-73
2023/09/23 00:23:52;;;;;;;13.88;7.53;;;;;;;11.56;100.00;100724.34;6096433;19;20084;-73
2023/09/23 00:25:57;;;;;;;17.10;7.63;;;;;;;11.57;100.00;100727.81;6094067;19;20109;-73
2023/09/23 00:28:02;;;;;;;13.73;7.30;;;;;;;11.45;100.00;100731.84;6094429;19;20018;-74
2023/09/23 00:30:12;;;;;;;15.48;8.07;;;;;;;11.42;100.00;100742.50;6094532;19;20076;-73
2023/09/23 00:32:17;;;;;;;16.13;7.80;;;;;;;11.45;100.00;100741.53;6091951;19;20460;-74
2023/09/23 00:34:23;;;;;;;17.05;8.02;;;;;;;11.39;100.00;100747.91;6091771;19;20012;-74
2023/09/23 00:36:28;;;;;;;15.80;9.52;;;;;;;11.31;100.00;100745.63;6095499;19;20015;-73
2023/09/23 00:38:32;;;;;;;20.58;10.82;;;;;;;11.35;100.00;100744.59;6101876;19;20007;-73
2023/09/23 00:40:39;;;;;;;26.08;11.23;;;;;;;11.33;100.00;100743.78;6102366;19;20039;-74
2023/09/23 00:42:42;;;;;;;18.65;10.05;;;;;;;11.32;100.00;100751.75;6102381;19;20846;-73
2023/09/23 00:44:47;;;;;;;22.75;10.77;;;;;;;11.35;100.00;100749.84;6104501;19;20022;-74
2023/09/23 00:46:52;;;;;;;23.55;10.63;;;;;;;11.31;100.00;100769.31;6104789;19;20486;-74
2023/09/23 00:49:01;;;;;;;20.52;10.60;;;;;;;11.36;100.00;100772.59;6100466;19;20015;-74
2023/09/23 00:51:06;;;;;;;21.35;10.05;;;;;;;11.34;100.00;100773.59;6101939;19;20681;-74
2023/09/23 00:53:13;;;;;;;21.40;10.73;;;;;;;11.36;100.00;100777.84;6097919;19;20024;-74
2023/09/23 00:55:20;;;;;;;18.73;9.85;;;;;;;11.37;100.00;100778.69;6103720;19;20025;-74
2023/09/23 00:57:28;;;;;;;17.38;10.23;;;;;;;11.36;100.00;100793.63;6103093;19;20014;-75
2023/09/23 00:59:35;;;;;;;19.65;10.73;;;;;;;11.39;100.00;100792.66;6100636;19;22316;-76
2023/09/23 01:01:43;;;;;;;21.20;11.05;;;;;;;11.42;100.00;100798.63;6099746;19;20034;-76
2023/09/23 01:03:48;;;;;;;20.20;10.07;;;;;;;11.46;100.00;100795.88;6103388;19;20427;-75
2023/09/23 01:06:08;;;;;;;19.25;10.52;;;;;;;11.47;100.00;100790.53;6103859;19;20011;-77
2023/09/23 01:08:25;;;;;;;23.17;10.85;;;;;;;11.49;100.00;100793.94;6105843;19;20088;-77
2023/09/23 01:10:30;;;;;;;21.75;11.15;;;;;;;11.53;100.00;100797.28;6102607;19;20048;-78
2023/09/23 01:12:38;;;;;;;26.40;11.15;;;;;;;11.53;100.00;100794.66;6104287;19;20503;-79
2023/09/23 01:14:44;;;;;;;20.95;10.73;;;;;;;11.53;100.00;100787.63;6111399;19;20006;-78
2023/09/23 01:16:46;;;;;;;25.35;11.85;;;;;;;11.58;100.00;100776.88;6111891;19;20014;-77
2023/09/23 01:18:52;;;;;;;23.73;10.35;;;;;;;11.56;100.00;100781.38;6113536;19;20010;-80
2023/09/23 01:20:55;;;;;;;21.17;9.80;;;;;;;11.60;100.00;100780.31;6112947;19;20011;-77
2023/09/23 01:23:05;;;;;;;26.30;11.77;;;;;;;11.58;100.00;100787.41;6111295;19;20022;-77
2023/09/23 01:25:11;;;;;;;23.58;11.80;;;;;;;11.60;100.00;100786.41;6109339;19;20025;-74
2023/09/23 01:27:18;;;;;;;20.65;11.32;;;;;;;11.63;100.00;100790.69;6111105;19;20013;-76
2023/09/23 01:29:26;;;;;;;21.95;10.23;;;;;;;11.57;100.00;100793.59;6110900;19;20488;-75
2023/09/23 01:31:34;;;;;;;21.98;11.48;;;;;;;11.58;100.00;100787.41;6110229;19;20365;-74
2023/09/23 01:33:41;;;;;;;21.95;11.57;;;;;;;11.59;100.00;100792.63;6110143;19;20498;-74
2023/09/23 01:35:48;;;;;;;20.25;10.65;;;;;;;11.62;100.00;100783.72;6102623;19;20015;-74
2023/09/23 01:37:53;;;;;;;20.33;9.80;;;;;;;11.60;100.00;100777.66;6109853;19;20848;-74
2023/09/23 01:40:02;;;;;;;20.95;10.82;;;;;;;11.60;100.00;100777.66;6104793;19;20018;-74
2023/09/23 01:42:07;;;;;;;19.83;9.40;;;;;;;11.63;100.00;100774.91;6102530;19;20015;-73
2023/09/23 01:44:10;;;;;;;18.85;10.32;;;;;;;11.63;100.00;100790.69;6109032;19;20006;-74
2023/09/23 01:46:15;;;;;;;20.98;9.25;;;;;;;11.68;100.00;100787.84;6109740;19;20013;-74
2023/09/23 01:48:21;;;;;;;16.65;8.93;;;;;;;11.65;100.00;100786.22;6104374;19;20011;-75
2023/09/23 01:50:29;;;;;;;20.85;9.10;;;;;;;11.71;100.00;100792.97;6108436;19;20010;-75
2023/09/23 01:52:34;;;;;;;16.58;8.70;;;;;;;11.72;100.00;100790.28;6108351;19;20020;-75
2023/09/23 01:54:39;;;;;;;14.48;7.50;;;;;;;11.68;100.00;100804.50;6108361;19;20056;-74
2023/09/23 01:56:46;;;;;;;11.82;6.43;;;;;;;11.67;100.00;100804.59;6109031;19;20018;-74
2023/09/23 01:58:51;;;;;;;9.98;5.15;;;;;;;11.64;100.00;100805.56;6108876;19;20019;-74
2023/09/23 02:00:58;;;;;;;10.90;4.43;;;;;;;11.62;100.00;100808.25;6101148;19;19999;-75
2023/09/23 02:03:03;;;;;;;7.22;3.40;;;;;;;11.61;100.00;100803.94;6107973;19;20014;-76
2023/09/23 02:05:09;;;;;;;9.52;3.08;;;;;;;11.60;100.00;100809.25;6110578;19;20014;-79
2023/09/23 02:07:18;;;;;;;8.27;3.75;;;;;;;11.54;100.00;100802.50;6112259;19;20019;-78
2023/09/23 02:09:22;;;;;;;7.90;3.17;;;;;;;11.54;100.00;100802.50;6110775;19;20141;-77
2023/09/23 02:11:29;;;;;;;5.47;2.97;;;;;;;11.52;100.00;100814.00;6109785;19;20071;-76
2023/09/23 02:13:40;;;;;;;5.40;2.60;;;;;;;11.55;100.00;100808.59;6102045;19;20010;-75
2023/09/23 02:15:51;;;;;;;5.43;3.00;;;;;;;11.48;100.00;100804.53;6108500;19;20067;-76
2023/09/23 02:17:58;;;;;;;6.82;3.65;;;;;;;11.47;100.00;100794.94;6108162;19;20014;-75
2023/09/23 02:20:03;;;;;;;6.68;3.35;;;;;;;11.47;100.00;100794.94;6108735;19;20481;-75
2023/09/23 02:22:08;;;;;;;7.40;3.28;;;;;;;11.44;100.00;100806.47;6108923;19;20015;-75
2023/09/23 02:24:13;;;;;;;8.32;3.65;;;;;;;11.43;100.00;100810.88;6106677;19;20560;-74
2023/09/23 02:26:18;;;;;;;8.52;3.70;;;;;;;11.43;100.00;100816.13;6107531;19;20531;-74
2023/09/23 02:28:23;;;;;;;8.73;4.40;;;;;;;11.43;100.00;100810.88;6108935;19;20010;-73
2023/09/23 02:30:32;;;;;;;9.65;4.32;;;;;;;11.43;100.00;100829.28;6108349;19;20580;-74
2023/09/23 02:32:38;;;;;;;10.20;4.80;;;;;;;11.46;100.00;100825.66;6109185;19;20412;-74
2023/09/23 02:34:45;;;;;;;9.90;4.47;;;;;;;11.45;100.00;100817.84;6108358;19;20082;-74
2023/09/23 02:36:52;;;;;;;13.40;4.95;;;;;;;11.42;100.00;100824.94;6100489;19;20078;-74
2023/09/23 02:38:57;;;;;;;10.07;4.05;;;;;;;11.41;100.00;100823.22;6106610;19;20014;-74
2023/09/23 02:41:04;;;;;;;9.27;4.40;;;;;;;11.47;100.00;100831.78;6107776;19;20011;-74
2023/09/23 02:43:09;;;;;;;8.05;4.18;;;;;;;11.52;100.00;100827.16;6104619;19;20014;-74
2023/09/23 02:45:16;;;;;;;8.10;4.28;;;;;;;11.48;100.00;100830.84;6102437;19;20165;-75
2023/09/23 02:47:24;;;;;;;9.23;4.63;;;;;;;11.45;100.00;100829.22;6106446;19;20142;-75
2023/09/23 02:49:30;;;;;;;11.35;5.15;;;;;;;11.47;100.00;100826.53;6105206;19;20027;-76
2023/09/23 02:51:35;;;;;;;9.68;4.30;;;;;;;11.52;100.00;100827.16;6103376;19;20035;-76
2023/09/23 02:53:40;;;;;;;9.75;4.78;;;;;;;11.51;100.00;100825.47;6101648;19;20002;-74
2023/09/23 02:55:52;;;;;;;8.82;4.57;;;;;;;11.45;100.00;100828.34;6105226;19;20102;-74
2023/09/23 02:57:59;;;;;;;8.63;4.07;;;;;;;11.41;100.00;100822.38;6104524;19;20046;-73
2023/09/23 03:00:15;;;;;;;6.75;3.97;;;;;;;11.36;100.00;100819.09;6106845;19;20002;-74
2023/09/23 03:02:24;;;;;;;7.78;3.88;;;;;;;11.36;100.00;100825.22;6099585;19;20018;-73
2023/09/23 03:04:33;;;;;;;7.85;3.90;;;;;;;11.33;100.00;100840.28;6106366;19;20082;-75
2023/09/23 03:06:40;;;;;;;9.80;3.67;;;;;;;11.37;100.00;100841.84;6105776;19;20038;-74
2023/09/23 03:08:47;;;;;;;9.77;3.22;;;;;;;11.40;100.00;100841.72;6100605;19;20011;-75
2023/09/23 03:10:54;;;;;;;6.65;3.33;;;;;;;11.43;100.00;100863.50;6106895;19;20011;-75
2023/09/23 03:13:07;;;;;;;6.20;2.75;;;;;;;11.48;100.00;100865.06;6102148;19;20018;-74
2023/09/23 03:15:17;;;;;;;7.35;2.60;;;;;;;11.56;100.00;100868.22;6100992;19;20011;-77
2023/09/23 03:17:23;;;;;;;6.82;2.80;;;;;;;11.60;100.00;100877.69;6105113;19;20035;-74
2023/09/23 03:19:28;;;;;;;5.32;3.53;;;;;;;11.65;100.00;100868.66;6107033;19;20022;-74
2023/09/23 03:21:36;;;;;;;8.35;3.22;;;;;;;11.72;100.00;100884.19;6106014;19;20035;-74
2023/09/23 03:23:43;;;;;;;6.10;3.45;;;;;;;11.73;100.00;100875.38;6106547;19;20487;-75
2023/09/23 03:25:51;;;;;;;7.47;4.30;;;;;;;11.70;100.00;100873.72;6106892;19;20002;-80
2023/09/23 03:27:57;;;;;;;7.57;4.00;;;;;;;11.75;100.00;100876.16;6107747;19;20021;-80
2023/09/23 03:30:06;;;;;;;8.95;4.30;;;;;;;11.73;100.00;100875.38;6107704;19;20010;-77
2023/09/23 03:32:11;;;;;;;9.70;4.43;;;;;;;11.74;100.00;100874.44;6108425;19;20010;-77
2023/09/23 03:34:18;;;;;;;9.05;4.32;;;;;;;11.74;100.00;100869.16;6102886;19;20006;-77
2023/09/23 03:36:24;;;;;;;11.57;5.10;;;;;;;11.80;100.00;100869.75;6105928;19;20017;-75
2023/09/23 03:38:32;;;;;;;10.90;6.15;;;;;;;11.80;100.00;100869.75;6102628;19;20007;-75
2023/09/23 03:40:38;;;;;;;12.60;5.60;;;;;;;11.78;100.00;100868.97;6107613;19;20010;-76
2023/09/23 03:42:45;;;;;;;10.45;6.13;;;;;;;11.81;100.00;100871.47;6105113;19;20087;-76
2023/09/23 03:44:50;;;;;;;16.10;7.13;;;;;;;11.84;100.00;100878.38;6101667;19;20109;-74
2023/09/23 03:46:56;;;;;;;13.48;6.25;;;;;;;11.76;100.00;100881.34;6104763;19;20062;-75
2023/09/23 03:49:01;;;;;;;13.95;7.10;;;;;;;11.78;100.00;100876.03;6106319;19;20011;-74
2023/09/23 03:51:09;;;;;;;12.93;6.82;;;;;;;11.77;100.00;100874.28;6104599;19;20475;-73
2023/09/23 03:53:14;;;;;;;15.82;7.18;;;;;;;11.73;100.00;100884.13;6103540;19;20020;-75
2023/09/23 03:55:22;;;;;;;16.35;7.93;;;;;;;11.74;100.00;100884.97;6105868;19;20010;-75
2023/09/23 03:57:25;;;;;;;19.17;7.30;;;;;;;11.75;100.00;100878.78;6107107;19;20090;-76
2023/09/23 03:59:30;;;;;;;14.77;6.93;;;;;;;11.74;100.00;100888.47;6105554;19;20098;-73
2023/09/23 04:01:36;;;;;;;17.08;7.75;;;;;;;11.72;100.00;100884.19;6105905;19;20015;-74
2023/09/23 04:03:41;;;;;;;14.50;7.65;;;;;;;11.67;100.00;100894.09;6100664;19;20010;-74
2023/09/23 04:05:46;;;;;;;16.05;7.57;;;;;;;11.65;100.00;100899.41;6105212;19;20440;-73
2023/09/23 04:07:51;;;;;;;10.45;7.43;;;;;;;11.62;100.00;100894.28;6105465;19;20073;-73
2023/09/23 04:09:54;;;;;;;10.45;6.43;;;;;;;11.60;100.00;100896.97;6103214;19;20014;-73
2023/09/23 04:12:03;;;;;;;13.50;6.55;;;;;;;11.59;100.00;100900.53;6103825;19;20534;-73
2023/09/23 04:14:11;;;;;;;11.23;5.88;;;;;;;11.51;100.00;100901.78;6103540;19;20101;-75
2023/09/23 04:16:16;;;;;;;13.00;5.85;;;;;;;11.47;100.00;100905.47;6072788;19;20065;-75
2023/09/23 04:18:18;;;;;;;11.93;5.45;;;;;;;11.42;100.00;100906.50;6101966;19;20013;-73
2023/09/23 04:20:23;;;;;;;12.10;5.80;;;;;;;11.38;100.00;100902.31;6104329;19;20039;-76
2023/09/23 04:22:28;;;;;;;11.70;5.70;;;;;;;11.35;100.00;100904.22;6102623;19;20011;-75
2023/09/23 04:24:34;;;;;;;8.32;4.30;;;;;;;11.39;100.00;100914.53;6105020;19;20266;-75
2023/09/23 04:26:39;;;;;;;8.27;4.47;;;;;;;11.43;100.00;100910.88;6105316;19;20082;-74
2023/09/23 04:28:47;;;;;;;8.93;4.43;;;;;;;11.44;100.00;100916.97;6106452;19;20007;-74
2023/09/23 04:30:55;;;;;;;8.52;4.50;;;;;;;11.43;100.00;100917.91;6106603;19;20014;-73
2023/09/23 04:33:00;;;;;;;11.35;4.28;;;;;;;11.42;100.00;100918.81;6107764;19;20411;-74
2023/09/23 04:35:06;;;;;;;10.02;3.58;;;;;;;11.35;100.00;100915.59;6105324;19;20038;-73
2023/09/23 04:37:12;;;;;;;8.15;4.22;;;;;;;11.39;100.00;100925.06;6103996;19;20071;-73
2023/09/23 04:39:20;;;;;;;8.40;4.30;;;;;;;11.41;100.00;100928.50;6097975;19;20007;-75
2023/09/23 04:41:24;;;;;;;10.20;5.07;;;;;;;11.37;100.00;100931.31;6105435;19;20482;-74
2023/09/23 04:43:30;;;;;;;8.18;4.07;;;;;;;11.43;100.00;100931.06;6104068;19;20038;-74
2023/09/23 04:45:38;;;;;;;12.35;4.35;;;;;;;11.40;100.00;100937.31;6103760;19;20006;-74
2023/09/23 04:47:41;;;;;;;8.13;4.22;;;;;;;11.41;100.00;100936.38;6099391;19;20449;-73
2023/09/23 04:49:46;;;;;;;;;;;;;;;11.34;100.00;100937.56;6099550;19;20090;-73
2023/09/23 04:51:51;;;;;;;10.55;5.05;;;;;;;11.38;100.00;100944.41;6104913;19;19918;-73
2023/09/23 04:54:01;;;;;;;9.38;4.55;;;;;;;11.36;100.00;100946.25;6101213;19;20006;-73
2023/09/23 04:56:06;;;;;;;10.55;4.85;;;;;;;11.41;100.00;100946.06;6103133;19;20039;-73
2023/09/23 04:58:13;;;;;;;9.48;4.63;;;;;;;11.39;100.00;100956.63;6103140;19;20027;-73
2023/09/23 05:00:20;;;;;;;12.27;4.93;;;;;;;11.39;100.00;100951.38;6100970;19;20546;-74
2023/09/23 05:02:28;;;;;;;10.57;4.88;;;;;;;11.41;100.00;100960.06;6102713;19;20163;-73
2023/09/23 05:04:33;;;;;;;11.23;5.63;;;;;;;11.41;100.00;100956.59;6098137;19;20006;-73
2023/09/23 05:06:38;;;;;;;9.60;4.50;;;;;;;11.48;100.00;100965.06;6104010;19;20498;-74
2023/09/23 05:08:43;;;;;;;9.23;5.13;;;;;;;11.50;100.00;100966.69;6105193;19;20619;-76
2023/09/23 05:10:49;;;;;;;9.27;4.32;;;;;;;11.54;100.00;100970.94;6103491;19;20011;-72
2023/09/23 05:12:56;;;;;;;10.35;5.40;;;;;;;11.62;100.00;100968.81;6102514;19;20353;-73
2023/09/23 05:14:59;;;;;;;12.77;4.70;;;;;;;11.72;100.00;100968.44;6105667;19;20013;-74
2023/09/23 05:17:06;;;;;;;11.52;4.18;;;;;;;11.72;100.00;100966.66;6096824;19;20007;-73
2023/09/23 05:19:11;;;;;;;10.40;4.10;;;;;;;11.74;100.00;100980.63;6101905;19;20640;-74
2023/09/23 05:21:18;;;;;;;12.10;4.45;;;;;;;11.74;100.00;100978.00;6103282;19;20090;-74
2023/09/23 05:23:24;;;;;;;13.30;5.55;;;;;;;11.81;100.00;100983.81;6104745;19;20023;-74
2023/09/23 05:25:29;;;;;;;8.77;4.15;;;;;;;11.75;100.00;100979.69;6105192;19;20022;-74
2023/09/23 05:27:34;;;;;;;10.02;4.13;;;;;;;11.71;100.00;100982.50;6106258;19;20635;-75
2023/09/23 05:29:39;;;;;;;6.15;3.33;;;;;;;11.70;100.00;100981.66;6105284;19;20007;-74
2023/09/23 05:31:44;;;;;;;6.95;3.42;;;;;;;11.68;100.00;100994.03;6105712;19;20007;-74
2023/09/23 05:33:49;;;;;;;10.82;3.78;;;;;;;11.68;100.00;100994.03;6104647;19;20086;-75
2023/09/23 05:35:57;;;;;;;8.95;3.50;;;;;;;11.70;100.00;100996.59;6105295;19;20491;-74
2023/09/23 05:38:03;;;;;;;8.65;3.47;;;;;;;11.70;100.00;100997.44;6103313;19;20576;-74
2023/09/23 05:40:23;;;;;;;5.88;3.20;;;;;;;11.68;100.00;101003.69;6097743;19;20089;-74
2023/09/23 05:42:31;;;;;;;10.55;3.67;;;;;;;11.70;100.00;101005.34;6103092;19;20015;-75
2023/09/23 05:44:36;;;;;;;6.80;3.15;;;;;;;11.72;100.00;101016.69;6103726;19;20031;-74
2023/09/23 05:46:42;;;;;;;5.72;2.90;;;;;;;11.75;100.00;101019.19;6104218;19;20099;-73
2023/09/23 05:48:49;;;;;;;8.25;3.13;;;;;;;11.73;100.00;101028.91;6096218;19;20027;-74
2023/09/23 05:50:55;;;;;;;8.38;3.55;;;;;;;11.82;100.00;101028.53;6102338;19;20011;-73
2023/09/23 05:53:02;;;;;;;5.47;3.10;;;;;;;11.88;100.00;101029.22;6100258;19;20039;-74
2023/09/23 05:55:08;;;;;;;7.55;3.28;;;;;;;11.91;100.00;101037.84;6102607;19;20478;-73
2023/09/23 05:57:13;;;;;;;6.20;3.08;;;;;;;11.97;100.00;101037.56;6103483;19;20160;-73
2023/09/23 05:59:18;;;;;;;7.88;3.15;;;;;;;12.01;100.00;101047.06;6108176;19;20010;-74
2023/09/23 06:01:26;;;;;;;7.82;3.05;;;;;;;12.04;100.00;101041.66;6108833;19;20074;-75
2023/09/23 06:03:31;;;;;;;8.52;3.67;;;;;;;12.13;100.00;101044.81;6109820;19;20018;-73
2023/09/23 06:05:36;;;;;;;9.65;3.25;;;;;;;12.15;100.00;101050.88;6106435;19;20014;-75
2023/09/23 06:07:41;;;;;;;8.00;3.70;;;;;;;12.16;100.00;101048.16;6107166;19;20050;-75
2023/09/23 06:09:49;;;;;;;7.10;3.00;;;;;;;12.19;100.00;101053.31;6107837;19;20010;-73
2023/09/23 06:11:54;;;;;;;11.15;3.40;;;;;;;12.19;100.00;101055.94;6109384;19;20074;-74
2023/09/23 06:13:59;;;;;;;11.55;3.25;;;;;;;12.21;100.00;101064.63;6108507;19;20007;-73
2023/09/23 06:16:05;;;;;;;8.68;2.92;;;;;;;12.22;100.00;101062.88;6107463;19;20047;-74
2023/09/23 06:18:10;;;;;;;7.57;3.50;;;;;;;12.24;100.00;101072.41;6104732;19;20089;-74
2023/09/23 06:20:12;;;;;;;7.00;2.90;;;;;;;12.26;100.00;101074.97;6105400;19;20019;-74
2023/09/23 06:22:17;;;;;;;9.57;3.47;;;;;;;12.30;100.00;101080.03;6105826;19;20021;-73
2023/09/23 06:24:22;;;;;;;4.97;2.83;;;;;;;12.34;100.00;101074.63;6108305;19;20503;-74
2023/09/23 06:26:30;;;;;;;7.45;2.67;;;;;;;12.40;100.00;101084.91;6107516;19;20103;-73
2023/09/23 06:28:35;;;;;;;6.07;2.88;;;;;;;12.40;100.00;101079.63;6105914;19;20035;-74
2023/09/23 06:30:40;;;;;;;5.60;2.53;;;;;;;12.34;100.00;101086.03;6108769;19;20030;-74
2023/09/23 06:32:47;;;;;;;5.93;3.42;;;;;;;12.38;100.00;101084.13;6108596;19;20006;-75
2023/09/23 06:34:49;;;;;;;8.23;3.22;;;;;;;12.44;100.00;101094.38;6106591;19;20014;-73
2023/09/23 06:36:54;;;;;;;8.48;2.88;;;;;;;12.40;100.00;101092.81;6099739;19;20007;-74
2023/09/23 06:39:02;;;;;;;6.32;2.75;;;;;;;12.43;100.00;101101.44;6105508;19;20011;-74
2023/09/23 06:41:07;;;;;;;6.32;2.80;;;;;;;12.44;100.00;101100.50;6106637;19;20022;-74
2023/09/23 06:43:15;;;;;;;6.50;2.85;;;;;;;12.50;100.00;101100.22;6105529;19;20007;-73
2023/09/23 06:45:20;;;;;;;5.60;3.03;;;;;;;12.48;100.00;101106.50;6106034;19;20027;-73
2023/09/23 06:47:23;;;;;;;7.55;3.65;;;;;;;12.51;100.00;101114.28;6109668;19;20015;-74
2023/09/23 06:49:28;;;;;;;6.85;3.20;;;;;;;12.50;100.00;101110.78;6100939;19;20003;-74
2023/09/23 06:51:33;;;;;;;5.95;2.65;;;;;;;12.52;100.00;101116.84;6107305;19;20098;-76
2023/09/23 06:53:39;;;;;;;9.50;2.97;;;;;;;12.56;100.00;101112.31;6088537;19;20478;-77
2023/09/23 06:55:47;;;;;;;6.07;2.97;;;;;;;12.56;100.00;101125.50;6084768;19;20013;-76
2023/09/23 06:57:51;;;;;;;4.88;2.70;;;;;;;12.57;100.00;101121.06;6107503;19;20021;-77
2023/09/23 07:00:00;;;;;;;8.35;2.97;;;;;;;12.58;100.00;101128.88;6107436;19;20019;-75
2023/09/23 07:02:04;;;;;;;6.60;3.58;;;;;;;12.51;100.00;101130.09;6108420;19;20002;-75
2023/09/23 07:04:09;;;;;;;7.03;3.03;;;;;;;12.50;100.00;101136.28;6108174;19;20015;-76
2023/09/23 07:06:14;;;;;;;5.93;2.78;;;;;;;12.51;100.00;101135.38;6107602;19;20010;-74
2023/09/23 07:08:19;;;;;;;6.50;3.17;;;;;;;12.52;100.00;101131.81;6099181;19;20007;-75
2023/09/23 07:10:24;;;;;;;5.30;2.88;;;;;;;12.57;100.00;101135.09;6105384;19;20023;-73
2023/09/23 07:12:29;;;;;;;7.78;3.38;;;;;;;12.61;100.00;101139.31;6106126;19;20019;-74
2023/09/23 07:14:34;;;;;;;7.05;3.00;;;;;;;12.66;100.00;101136.47;6106953;19;20035;-73
2023/09/23 07:16:41;;;;;;;8.50;3.42;;;;;;;12.67;100.00;101143.47;6103221;19;20495;-74
2023/09/23 07:18:48;;;;;;;7.35;3.85;;;;;;;12.68;100.00;101145.16;6104968;19;20033;-74
2023/09/23 07:20:58;;;;;;;7.25;3.42;;;;;;;12.74;100.00;101153.69;6101347;19;20039;-73
2023/09/23 07:23:03;;;;;;;9.20;3.75;;;;;;;12.78;100.00;101158.81;6105336;19;20492;-74
2023/09/23 07:25:09;;;;;;;6.32;3.45;;;;;;;12.84;100.00;101153.25;6107612;19;20062;-74
2023/09/23 07:27:14;;;;;;;5.32;3.20;;;;;;;12.88;100.00;101154.84;6109184;19;20022;-74
2023/09/23 07:29:19;;;;;;;10.02;3.60;;;;;;;12.96;100.00;101165.91;6108531;19;20014;-73
2023/09/23 07:31:24;;;;;;;8.68;3.50;;;;;;;12.98;100.00;101169.31;6094003;19;20015;-74
2023/09/23 07:33:31;;;;;;;8.23;3.10;;;;;;;13.07;100.00;101168.03;6109548;19;20474;-75
2023/09/23 07:35:37;;;;;;;6.82;2.88;;;;;;;13.10;100.00;101163.47;6110200;19;20022;-73
2023/09/23 07:37:44;;;;;;;6.32;3.20;;;;;;;13.17;100.00;101174.63;6111693;19;20009;-75
2023/09/23 07:39:47;;;;;;;6.10;3.15;;;;;;;13.16;100.00;101179.03;6100190;19;20038;-74
2023/09/23 07:41:51;;;;;;;8.85;3.53;;;;;;;13.16;100.00;101180.81;6074525;19;20090;-73
2023/09/23 07:44:10;;;;;;;7.38;3.30;;;;;;;13.27;100.00;101186.50;6108165;19;20002;-75
2023/09/23 07:46:19;;;;;;;8.07;3.20;;;;;;;13.29;100.00;101189.03;6109189;19;20357;-75
2023/09/23 07:48:27;;;;;;;9.10;3.15;;;;;;;13.33;100.00;101206.47;6106980;19;20262;-75
2023/09/23 07:50:47;;;;;;;5.22;3.25;;;;;;;13.38;100.00;101209.75;6101173;19;20010;-74
2023/09/23 07:52:52;;;;;;;8.70;3.10;;;;;;;13.43;100.00;101206.88;6101951;19;20014;-74
2023/09/23 07:54:57;;;;;;;8.13;3.20;;;;;;;13.53;100.00;101214.31;6106456;19;20023;-73
2023/09/23 07:57:03;;;;;;;8.48;3.40;;;;;;;13.58;100.00;101212.28;6051247;19;20039;-74
2023/09/23 07:59:14;;;;;;;9.63;3.42;;;;;;;13.69;100.00;101225.03;6106078;19;20373;-74
2023/09/23 08:01:21;;;;;;;8.13;2.92;;;;;;;13.74;100.00;101223.00;6105181;19;20103;-74
2023/09/23 08:03:28;;;;;;;7.10;3.60;;;;;;;13.90;100.00;101214.34;6097402;19;20019;-74
2023/09/23 08:05:36;;;;;;;9.70;4.10;;;;;;;13.93;100.00;101230.03;6105503;19;20007;-73
2023/09/23 08:07:41;;;;;;;8.07;3.25;;;;;;;14.22;100.00;101228.63;6105235;19;20011;-74
2023/09/23 08:09:46;;;;;;;7.00;3.45;;;;;;;14.27;100.00;101231.91;6100610;19;20094;-74
2023/09/23 08:11:51;;;;;;;5.78;2.83;;;;;;;14.24;100.00;101230.28;6104021;19;20007;-73
2023/09/23 08:13:59;;;;;;;5.85;2.92;;;;;;;14.30;100.00;101241.44;6105469;19;20135;-74
2023/09/23 08:16:06;;;;;;;7.38;2.90;;;;;;;14.36;100.00;101242.00;6083071;19;20011;-73
2023/09/23 08:18:12;;;;;;;8.80;3.28;;;;;;;14.55;100.00;101247.25;6104683;19;20098;-73
2023/09/23 08:20:21;;;;;;;7.63;3.15;;;;;;;14.81;100.00;101248.56;6101291;19;20031;-73
2023/09/23 08:22:30;;;;;;;4.60;2.78;;;;;;;14.89;100.00;101251.69;6098962;19;20381;-74
2023/09/23 08:24:35;;;;;;;5.93;2.72;;;;;;;14.65;100.00;101253.81;6104656;19;20002;-75
2023/09/23 08:26:40;;;;;;;4.57;2.72;;;;;;;14.63;100.00;101260.09;6107931;19;20253;-74
2023/09/23 08:28:48;;;;;;;5.40;2.95;;;;;;;14.67;100.00;101261.66;6105776;19;20022;-73
2023/09/23 08:30:51;;;;;;;5.70;2.88;;;;;;;14.93;100.00;101261.19;6105975;19;20024;-74
2023/09/23 08:32:59;;;;;;;3.92;2.28;;;;;;;15.12;100.00;101269.00;6106054;19;20022;-73
2023/09/23 08:35:05;;;;;;;5.13;2.65;;;;;;;15.46;100.00;101276.97;6105714;19;20015;-75
2023/09/23 08:37:10;;;;;;;5.25;2.53;;;;;;;15.56;100.00;101284.31;6106496;19;20014;-75
2023/09/23 08:39:18;;;;;;;6.30;3.20;;;;;;;15.82;100.00;101276.75;6080387;19;20654;-73
2023/09/23 08:41:25;;;;;;;5.65;2.40;;;;;;;15.94;100.00;101280.53;6101373;19;20035;-73
2023/09/23 08:43:36;;;;;;;7.22;2.60;;;;;;;16.21;100.00;101286.91;6102555;19;20007;-73
2023/09/23 08:45:46;;;;;;;4.35;2.03;;;;;;;16.24;100.00;101286.75;6101953;19;20007;-73
2023/09/23 08:47:51;;;;;;;5.18;2.15;;;;;;;15.88;100.00;101287.03;6103449;19;20115;-73
2023/09/23 08:49:56;;;;;;;5.45;2.38;;;;;;;15.63;100.00;101298.06;6104026;19;20007;-73
2023/09/23 08:52:04;;;;;;;4.13;2.10;;;;;;;15.61;100.00;101307.91;6098945;19;20007;-74
2023/09/23 08:54:11;;;;;;;4.45;1.75;;;;;;;15.44;100.00;101311.47;6102345;19;20496;-73
2023/09/23 08:56:19;;;;;;;9.77;2.50;;;;;;;15.92;100.00;101312.41;6097197;19;20015;-72
2023/09/23 08:58:24;;;;;;;6.78;2.75;;;;;;;16.28;100.00;101319.25;6102152;19;20394;-73
2023/09/23 09:00:30;;;;;;;7.13;2.30;;;;;;;16.21;100.00;101318.72;6104446;19;20373;-72
2023/09/23 09:02:35;;;;;;;5.32;2.13;;;;;;;15.94;100.00;101309.69;6103224;19;20003;-73
2023/09/23 09:04:40;;;;;;;4.20;2.15;;;;;;;15.70;99.68;101325.13;6103026;19;20367;-73
2023/09/23 09:06:50;;;;;;;5.32;2.30;;;;;;;15.93;100.00;101326.50;6104694;19;20043;-71
2023/09/23 09:08:56;;;;;;;4.50;2.15;;;;;;;15.93;100.00;101323.84;6104107;19;20048;-73
2023/09/23 09:11:01;;;;;;;4.53;2.63;;;;;;;15.79;100.00;101330.78;6095735;19;20667;-74
2023/09/23 09:13:09;;;;;;;4.82;2.25;;;;;;;15.65;100.00;101333.28;6104214;19;20506;-72
2023/09/23 09:15:14;;;;;;;3.50;2.20;;;;;;;15.62;100.00;101332.63;6103651;19;20541;-74
2023/09/23 09:17:19;;;;;;;4.53;1.70;;;;;;;15.52;100.00;101342.84;6103032;19;20895;-72
2023/09/23 09:19:25;;;;;;;5.70;2.72;;;;;;;15.64;100.00;101344.84;6101450;19;20014;-72
2023/09/23 09:21:27;;;;;;;4.90;2.20;;;;;;;15.55;100.00;101345.31;6081928;19;20044;-72
2023/09/23 09:23:32;;;;;;;2.85;1.90;;;;;;;15.47;100.00;101352.81;6099202;19;20024;-72
2023/09/23 09:25:37;;;;;;;5.20;2.25;;;;;;;15.39;100.00;101366.47;6104708;19;20022;-72
2023/09/23 09:27:41;;;;;;;4.68;2.20;;;;;;;15.22;100.00;101363.81;6102517;19;20003;-73
2023/09/23 09:29:49;;;;;;;2.63;1.83;;;;;;;15.03;100.00;101354.16;6103026;19;20014;-73
2023/09/23 09:32:10;;;;;;;1.50;1.35;;;;;;;14.93;100.00;101367.03;6102135;19;20006;-72
2023/09/23 09:34:17;;;;;;;1.10;1.10;;;;;;;14.78;100.00;101377.53;6109578;19;20578;-72
2023/09/23 09:36:25;;;;;;;3.58;1.60;;;;;;;14.63;100.00;101372.03;6107357;19;20044;-73
2023/09/23 09:38:33;;;;;;;2.10;1.73;;;;;;;14.62;100.00;101377.44;6107820;19;20022;-72